CJX5 weather

Souris Glenwood Industrial Air Park
Souris Glenwood, Manitoba, Canada

Public forecast

Using degrees Celsius for public forecast. Weather courtesy of forecast.io.

METAR (pilot weather report)

Closest report is Brandon Municipal Airport, 19.2 nm (35.6 km) NNE. Retrieved 2019/05/20 08:00 UTC (53 minutes ago):

CYBR 200800Z 02009KT 15SM SCT200 05/M00 A3014 RMK CI4 SLP223

TAF (pilot weather forecast)

Closest forecast is Brandon Municipal Airport, 19.2 nm (35.6 km) NNE. Retrieved 2019/05/20 06:42 UTC (2 hours ago):

TAF CYBR 200538Z 2006/2018 02008KT P6SM SCT200 BECMG 2015/2017 07010KT RMK NXT FCST BY 201200Z